createdAt,value
2023-03-08T00:01:07.780Z,60.80
2023-03-08T00:03:34.275Z,60.90
2023-03-08T00:06:00.771Z,60.90
2023-03-08T00:08:27.278Z,61.00
2023-03-08T00:10:53.837Z,60.90
2023-03-08T00:13:20.313Z,60.80
2023-03-08T00:15:46.839Z,61.00
2023-03-08T00:18:13.411Z,60.80
2023-03-08T00:20:39.906Z,60.90
2023-03-08T00:23:06.380Z,60.80
2023-03-08T00:25:32.871Z,60.70
2023-03-08T00:27:59.335Z,61.20
2023-03-08T00:30:26.010Z,60.80
2023-03-08T00:32:52.491Z,60.80
2023-03-08T00:35:19.100Z,60.90
2023-03-08T00:37:45.614Z,60.90
2023-03-08T00:40:12.086Z,60.40
2023-03-08T00:42:38.557Z,60.60
2023-03-08T00:45:05.052Z,60.80
2023-03-08T00:47:31.534Z,60.30
2023-03-08T00:49:58.123Z,60.30
2023-03-08T00:52:24.751Z,60.10
2023-03-08T00:54:51.221Z,60.30
2023-03-08T00:57:17.708Z,60.50
2023-03-08T00:59:44.166Z,60.50
2023-03-08T01:02:10.646Z,60.30
2023-03-08T01:04:37.140Z,60.40
2023-03-08T01:07:03.641Z,60.30
2023-03-08T01:09:30.105Z,60.20
2023-03-08T01:11:56.599Z,60.50
2023-03-08T01:14:23.124Z,60.30
2023-03-08T01:16:49.606Z,60.20
2023-03-08T01:19:16.079Z,60.00
2023-03-08T01:21:42.547Z,60.10
2023-03-08T01:24:09.026Z,60.20
2023-03-08T01:26:35.503Z,60.00
2023-03-08T01:29:01.968Z,60.10
2023-03-08T01:31:28.473Z,60.10
2023-03-08T01:33:54.966Z,60.10
2023-03-08T01:36:21.451Z,59.40
2023-03-08T01:38:47.940Z,59.50
2023-03-08T01:41:14.441Z,59.60
2023-03-08T01:43:40.904Z,59.70
2023-03-08T01:46:07.375Z,59.80
2023-03-08T01:48:33.850Z,59.90
2023-03-08T01:51:00.343Z,59.90
2023-03-08T01:53:26.825Z,60.10
2023-03-08T01:55:53.332Z,60.20
2023-03-08T01:58:19.833Z,60.00
2023-03-08T02:00:46.330Z,60.20
2023-03-08T02:03:12.840Z,60.20
2023-03-08T02:05:39.307Z,60.00
2023-03-08T02:08:05.793Z,60.00
2023-03-08T02:10:32.297Z,60.00
2023-03-08T02:12:58.795Z,59.90
2023-03-08T02:15:25.312Z,59.80
2023-03-08T02:17:51.827Z,59.80
2023-03-08T02:20:18.345Z,59.90
2023-03-08T02:22:44.826Z,59.60
2023-03-08T02:25:11.314Z,59.60
2023-03-08T02:27:37.789Z,59.40
2023-03-08T02:30:04.270Z,59.60
2023-03-08T02:32:30.784Z,59.50
2023-03-08T02:34:57.274Z,59.60
2023-03-08T02:37:23.760Z,59.40
2023-03-08T02:39:50.226Z,59.40
2023-03-08T02:42:16.688Z,59.60
2023-03-08T02:44:43.172Z,59.90
2023-03-08T02:47:09.666Z,59.80
2023-03-08T02:49:36.139Z,59.70
2023-03-08T02:52:02.640Z,59.40
2023-03-08T02:54:29.111Z,59.40
2023-03-08T02:56:55.596Z,59.60
2023-03-08T02:59:23.894Z,59.50
2023-03-08T03:01:50.567Z,59.70
2023-03-08T03:04:17.045Z,59.80
2023-03-08T03:06:43.528Z,59.90
2023-03-08T03:09:10.045Z,59.90
2023-03-08T03:11:36.553Z,59.60
2023-03-08T03:14:03.045Z,59.50
2023-03-08T03:16:29.514Z,59.30
2023-03-08T03:18:55.976Z,59.30
2023-03-08T03:21:22.464Z,59.30
2023-03-08T03:23:48.960Z,59.30
2023-03-08T03:26:15.462Z,59.00
2023-03-08T03:28:41.952Z,59.30
2023-03-08T03:31:08.487Z,59.60
2023-03-08T03:33:34.975Z,59.30
2023-03-08T03:36:01.472Z,59.70
2023-03-08T03:38:27.946Z,59.90
2023-03-08T03:40:54.444Z,60.00
2023-03-08T03:43:20.913Z,60.00
2023-03-08T03:45:47.410Z,59.80
2023-03-08T03:48:13.881Z,59.80
2023-03-08T03:50:40.356Z,59.60
2023-03-08T03:53:06.832Z,59.10
2023-03-08T03:55:33.349Z,59.50
2023-03-08T03:57:59.856Z,59.80
2023-03-08T04:00:26.339Z,59.70
2023-03-08T04:02:52.838Z,59.40
2023-03-08T04:05:19.351Z,59.20
2023-03-08T04:07:45.829Z,59.10
2023-03-08T04:10:12.283Z,59.50
2023-03-08T04:12:38.757Z,59.40
2023-03-08T04:15:05.217Z,59.40
2023-03-08T04:17:31.695Z,59.40
2023-03-08T04:19:58.160Z,59.30
2023-03-08T04:22:24.643Z,59.20
2023-03-08T04:24:51.129Z,59.10
2023-03-08T04:27:17.619Z,58.90
2023-03-08T04:29:44.109Z,59.10
2023-03-08T04:32:14.246Z,58.70
2023-03-08T04:34:40.759Z,59.00
2023-03-08T04:37:07.236Z,58.80
2023-03-08T04:39:33.721Z,58.60
2023-03-08T04:42:00.177Z,58.70
2023-03-08T04:44:26.627Z,58.60
2023-03-08T04:46:53.173Z,58.50
2023-03-08T04:49:19.654Z,58.30
2023-03-08T04:51:46.141Z,58.30
2023-03-08T04:54:12.627Z,58.40
2023-03-08T04:56:39.128Z,58.70
2023-03-08T04:59:05.593Z,58.60
2023-03-08T05:01:32.080Z,58.50
2023-03-08T05:03:58.545Z,58.60
2023-03-08T05:06:25.046Z,58.30
2023-03-08T05:08:51.535Z,58.50
2023-03-08T05:11:18.063Z,58.40
2023-03-08T05:13:44.560Z,58.40
2023-03-08T05:16:11.076Z,58.20
2023-03-08T05:18:37.597Z,58.50
2023-03-08T05:21:04.108Z,58.50
2023-03-08T05:23:30.599Z,58.40
2023-03-08T05:25:57.101Z,58.40
2023-03-08T05:28:23.591Z,58.50
2023-03-08T05:30:50.119Z,59.20
2023-03-08T05:33:16.581Z,58.70
2023-03-08T05:35:43.106Z,58.40
2023-03-08T05:38:09.656Z,58.70
2023-03-08T05:40:36.158Z,58.20
2023-03-08T05:43:02.636Z,58.40
2023-03-08T05:45:29.236Z,58.40
2023-03-08T05:47:55.745Z,58.60
2023-03-08T05:50:22.242Z,58.60
2023-03-08T05:52:48.728Z,58.40
2023-03-08T05:55:15.205Z,58.40
2023-03-08T05:57:41.689Z,58.30
2023-03-08T06:00:08.164Z,58.20
2023-03-08T06:02:34.666Z,58.00
2023-03-08T06:05:01.157Z,58.10
2023-03-08T06:07:27.638Z,58.10
2023-03-08T06:09:54.125Z,58.10
2023-03-08T06:12:20.602Z,58.00
2023-03-08T06:14:47.071Z,58.00
2023-03-08T06:17:13.561Z,58.00
2023-03-08T06:19:40.033Z,58.00
2023-03-08T06:22:06.517Z,58.00
2023-03-08T06:24:32.987Z,57.90
2023-03-08T06:26:59.492Z,58.00
2023-03-08T06:29:25.975Z,58.10
2023-03-08T06:31:52.462Z,58.00
2023-03-08T06:34:18.951Z,58.20
2023-03-08T06:36:45.449Z,58.20
2023-03-08T06:39:11.923Z,58.00
2023-03-08T06:41:38.404Z,57.90
2023-03-08T06:44:04.902Z,57.90
2023-03-08T06:46:31.402Z,57.60
2023-03-08T06:48:57.885Z,57.70
2023-03-08T06:51:24.351Z,57.50
2023-03-08T06:53:50.862Z,57.70
2023-03-08T06:56:17.349Z,57.60
2023-03-08T06:58:43.844Z,57.90
2023-03-08T07:01:10.354Z,57.50
2023-03-08T07:03:36.868Z,57.50
2023-03-08T07:06:03.366Z,57.70
2023-03-08T07:08:29.841Z,57.60
2023-03-08T07:10:56.324Z,57.60
2023-03-08T07:13:22.806Z,57.50
2023-03-08T07:15:49.337Z,57.50
2023-03-08T07:18:16.155Z,57.70
2023-03-08T07:20:43.057Z,57.50
2023-03-08T07:23:09.579Z,57.50
2023-03-08T07:25:36.043Z,57.40
2023-03-08T07:28:02.529Z,57.40
2023-03-08T07:30:29.107Z,57.40
2023-03-08T07:32:55.664Z,57.30
2023-03-08T07:35:22.188Z,57.40
2023-03-08T07:37:48.666Z,57.50
2023-03-08T07:40:15.120Z,57.50
2023-03-08T07:42:41.598Z,57.30
2023-03-08T07:45:08.071Z,57.50
2023-03-08T07:47:34.569Z,57.50
2023-03-08T07:50:01.045Z,57.50
2023-03-08T07:52:27.553Z,57.30
2023-03-08T07:54:54.013Z,57.50
2023-03-08T07:57:20.519Z,57.40
2023-03-08T07:59:47.012Z,57.30
2023-03-08T08:02:13.528Z,57.30
2023-03-08T08:04:40.026Z,57.20
2023-03-08T08:07:06.533Z,57.20
2023-03-08T08:09:33.006Z,57.30
2023-03-08T08:12:02.392Z,57.40
2023-03-08T08:14:28.864Z,57.50
2023-03-08T08:16:55.347Z,57.20
2023-03-08T08:19:21.810Z,57.40
2023-03-08T08:21:48.288Z,57.50
2023-03-08T08:24:14.776Z,57.60
2023-03-08T08:26:41.249Z,57.70
2023-03-08T08:29:07.720Z,57.50
2023-03-08T08:31:34.211Z,57.40
2023-03-08T08:34:00.755Z,57.70
2023-03-08T08:36:27.297Z,57.70
2023-03-08T08:38:53.794Z,57.60
2023-03-08T08:41:20.266Z,57.40
2023-03-08T08:43:46.755Z,57.40
2023-03-08T08:46:13.228Z,57.70
2023-03-08T08:48:39.693Z,57.60
2023-03-08T08:51:06.187Z,57.70
2023-03-08T08:53:32.682Z,57.60
2023-03-08T08:55:59.160Z,57.50
2023-03-08T08:58:25.676Z,57.40
2023-03-08T09:00:52.172Z,57.60
2023-03-08T09:03:18.732Z,57.70
2023-03-08T09:05:45.315Z,57.50
2023-03-08T09:08:11.827Z,57.50
2023-03-08T09:10:38.315Z,57.60
2023-03-08T09:13:04.849Z,57.90
2023-03-08T09:15:31.392Z,57.80
2023-03-08T09:17:57.865Z,57.70
2023-03-08T09:20:24.425Z,57.70
2023-03-08T09:22:50.958Z,57.70
2023-03-08T09:25:17.462Z,57.50
2023-03-08T09:27:43.952Z,57.60
2023-03-08T09:30:10.444Z,57.60
2023-03-08T09:32:37.016Z,57.70
2023-03-08T09:35:03.552Z,57.70
2023-03-08T09:37:30.047Z,57.50
2023-03-08T09:39:56.538Z,57.40
2023-03-08T09:42:23.006Z,57.30
2023-03-08T09:44:49.506Z,57.30
2023-03-08T09:47:15.965Z,57.10
2023-03-08T09:49:42.445Z,57.20
2023-03-08T09:52:08.921Z,57.40
2023-03-08T09:54:35.419Z,57.50
2023-03-08T09:57:01.890Z,57.20
2023-03-08T09:59:28.448Z,57.20
2023-03-08T10:01:54.934Z,57.30
2023-03-08T10:04:21.523Z,57.30
2023-03-08T10:06:48.124Z,57.20
2023-03-08T10:09:14.637Z,57.30
2023-03-08T10:11:41.113Z,57.30
2023-03-08T10:14:07.750Z,57.30
2023-03-08T10:16:34.298Z,57.10
2023-03-08T10:19:00.790Z,57.30
2023-03-08T10:21:27.259Z,57.40
2023-03-08T10:23:53.806Z,57.50
2023-03-08T10:26:20.291Z,57.50
2023-03-08T10:28:46.787Z,57.60
2023-03-08T10:31:13.369Z,57.60
2023-03-08T10:33:39.890Z,57.20
2023-03-08T10:36:06.474Z,57.00
2023-03-08T10:38:33.018Z,57.00
2023-03-08T10:40:59.548Z,57.10
2023-03-08T10:43:26.015Z,57.30
2023-03-08T10:45:52.518Z,57.30
2023-03-08T10:48:19.015Z,57.20
2023-03-08T10:50:45.520Z,57.30
2023-03-08T10:53:12.010Z,57.50
2023-03-08T10:55:38.512Z,57.50
2023-03-08T10:58:06.100Z,57.60
2023-03-08T11:00:32.601Z,57.80
2023-03-08T11:02:59.113Z,57.70
2023-03-08T11:05:25.601Z,57.50
2023-03-08T11:07:52.061Z,57.60
2023-03-08T11:10:18.708Z,57.50
2023-03-08T11:12:45.300Z,57.50
2023-03-08T11:15:11.818Z,57.30
2023-03-08T11:17:38.308Z,57.40
2023-03-08T11:20:04.803Z,57.70
2023-03-08T11:22:32.495Z,57.50
2023-03-08T11:24:58.961Z,57.30
2023-03-08T11:27:25.455Z,57.70
2023-03-08T11:29:51.945Z,57.50
2023-03-08T11:32:18.507Z,57.50
2023-03-08T11:34:45.035Z,57.50
2023-03-08T11:37:11.526Z,57.30
2023-03-08T11:39:38.011Z,57.20
2023-03-08T11:42:04.579Z,57.20
2023-03-08T11:44:31.144Z,57.10
2023-03-08T11:46:57.752Z,57.10
2023-03-08T11:49:24.260Z,57.00
2023-03-08T11:51:50.752Z,57.20
2023-03-08T11:54:17.230Z,57.10
2023-03-08T11:56:43.712Z,57.10
2023-03-08T11:59:10.189Z,57.10
2023-03-08T12:01:36.688Z,57.00
2023-03-08T12:04:04.329Z,57.00
2023-03-08T12:06:32.929Z,57.20
2023-03-08T12:09:00.266Z,56.90
2023-03-08T12:11:26.800Z,57.00
2023-03-08T12:13:53.277Z,57.00
2023-03-08T12:16:19.843Z,57.30
2023-03-08T12:18:46.371Z,57.00
2023-03-08T12:21:12.845Z,57.30
2023-03-08T12:23:39.338Z,57.00
2023-03-08T12:26:05.869Z,56.90
2023-03-08T12:28:32.375Z,57.20
2023-03-08T12:30:58.880Z,57.20
2023-03-08T12:33:25.479Z,57.10
2023-03-08T12:35:52.156Z,57.20
2023-03-08T12:38:18.740Z,57.20
2023-03-08T12:40:45.341Z,57.00
2023-03-08T12:43:11.844Z,57.30
2023-03-08T12:45:38.400Z,57.30
2023-03-08T12:48:04.902Z,57.20
2023-03-08T12:50:31.502Z,57.00
2023-03-08T12:52:57.997Z,57.70
2023-03-08T12:55:24.506Z,57.10
2023-03-08T12:57:51.007Z,57.00
2023-03-08T13:00:17.500Z,57.00
2023-03-08T13:02:43.988Z,57.10
2023-03-08T13:05:10.536Z,56.80
2023-03-08T13:07:37.089Z,57.10
2023-03-08T13:10:03.615Z,57.00
2023-03-08T13:12:30.126Z,57.00
2023-03-08T13:14:56.621Z,56.80
2023-03-08T13:17:23.102Z,56.60
2023-03-08T13:19:49.598Z,57.00
2023-03-08T13:22:16.153Z,57.00
2023-03-08T13:24:42.647Z,56.80
2023-03-08T13:27:09.135Z,56.80
2023-03-08T13:29:35.621Z,57.00
2023-03-08T13:32:02.121Z,57.20
2023-03-08T13:34:28.626Z,57.00
2023-03-08T13:36:55.132Z,56.90
2023-03-08T13:39:21.606Z,56.90
2023-03-08T13:41:48.117Z,57.10
2023-03-08T13:44:14.617Z,57.00
2023-03-08T13:46:41.103Z,57.30
2023-03-08T13:49:07.570Z,57.40
2023-03-08T13:51:34.053Z,57.10
2023-03-08T13:54:00.532Z,57.00
2023-03-08T13:56:27.056Z,57.00
2023-03-08T13:58:53.614Z,56.90
2023-03-08T14:01:20.227Z,57.00
2023-03-08T14:03:46.792Z,57.70
2023-03-08T14:06:13.298Z,57.20
2023-03-08T14:08:39.788Z,57.00
2023-03-08T14:11:06.343Z,57.20
2023-03-08T14:13:32.841Z,56.80
2023-03-08T14:15:59.581Z,56.90
2023-03-08T14:18:26.138Z,56.90
2023-03-08T14:20:52.646Z,57.00
2023-03-08T14:23:19.128Z,57.20
2023-03-08T14:25:45.630Z,57.10
2023-03-08T14:28:12.137Z,57.20
2023-03-08T14:30:38.654Z,57.20
2023-03-08T14:33:05.159Z,57.00
2023-03-08T14:35:31.749Z,56.90
2023-03-08T14:37:58.249Z,57.20
2023-03-08T14:40:26.467Z,57.10
2023-03-08T14:42:53.272Z,57.20
2023-03-08T14:45:19.757Z,57.40
2023-03-08T14:47:50.821Z,57.20
2023-03-08T14:50:17.326Z,57.20
2023-03-08T14:52:43.811Z,57.50
2023-03-08T14:55:10.291Z,56.90
2023-03-08T14:57:36.765Z,57.10
2023-03-08T15:00:03.247Z,57.20
2023-03-08T15:02:29.723Z,57.10
2023-03-08T15:04:56.192Z,57.00
2023-03-08T15:07:22.661Z,57.00
2023-03-08T15:09:49.129Z,57.20
2023-03-08T15:12:15.595Z,57.30
2023-03-08T15:14:42.115Z,57.00
2023-03-08T15:17:08.603Z,56.90
2023-03-08T15:19:35.100Z,57.00
2023-03-08T15:22:02.739Z,57.00
2023-03-08T15:24:29.221Z,56.90
2023-03-08T15:26:55.749Z,57.10
2023-03-08T15:29:22.225Z,56.90
2023-03-08T15:31:48.693Z,56.90
2023-03-08T15:34:15.164Z,57.30
2023-03-08T15:36:41.629Z,57.00
2023-03-08T15:39:08.094Z,57.20
2023-03-08T15:41:34.564Z,57.20
2023-03-08T15:44:01.055Z,57.10
2023-03-08T15:46:27.585Z,57.00
2023-03-08T15:48:54.123Z,56.80
2023-03-08T15:51:20.603Z,56.70
2023-03-08T15:53:47.064Z,56.70
2023-03-08T15:56:13.555Z,56.80
2023-03-08T15:58:40.027Z,57.60
2023-03-08T16:01:06.516Z,57.10
2023-03-08T16:03:32.984Z,57.10
2023-03-08T16:05:59.480Z,56.80
2023-03-08T16:08:25.972Z,56.80
2023-03-08T16:10:52.471Z,56.70
2023-03-08T16:13:18.953Z,57.00
2023-03-08T16:15:45.434Z,56.90
2023-03-08T16:18:11.932Z,57.00
2023-03-08T16:20:38.415Z,57.20
2023-03-08T16:23:08.802Z,57.10
2023-03-08T16:25:35.274Z,57.00
2023-03-08T16:28:01.753Z,57.00
2023-03-08T16:30:28.238Z,57.00
2023-03-08T16:32:54.730Z,56.80
2023-03-08T16:35:21.211Z,56.80
2023-03-08T16:37:47.703Z,56.90
2023-03-08T16:40:14.193Z,57.00
2023-03-08T16:42:40.727Z,57.00
2023-03-08T16:45:07.182Z,56.90
2023-03-08T16:47:33.668Z,57.10
2023-03-08T16:50:00.149Z,56.80
2023-03-08T16:52:26.625Z,57.10
2023-03-08T16:54:53.113Z,57.20
2023-03-08T16:57:20.104Z,57.30
2023-03-08T16:59:46.684Z,57.30
2023-03-08T17:02:13.173Z,57.30
2023-03-08T17:04:39.706Z,56.90
2023-03-08T17:07:06.201Z,57.30
2023-03-08T17:09:32.722Z,57.20
2023-03-08T17:11:59.218Z,56.90
2023-03-08T17:14:25.721Z,57.00
2023-03-08T17:16:52.212Z,57.00
2023-03-08T17:19:18.718Z,56.80
2023-03-08T17:21:45.201Z,57.00
2023-03-08T17:24:11.700Z,57.10
2023-03-08T17:26:38.189Z,57.70
2023-03-08T17:29:04.702Z,57.00
2023-03-08T17:31:31.239Z,56.90
2023-03-08T17:33:57.752Z,57.00
2023-03-08T17:36:24.320Z,56.90
2023-03-08T17:38:50.876Z,56.80
2023-03-08T17:41:17.350Z,57.00
2023-03-08T17:43:43.849Z,56.80
2023-03-08T17:46:10.376Z,57.10
2023-03-08T17:48:36.901Z,57.20
2023-03-08T17:51:03.388Z,57.00
2023-03-08T17:53:30.003Z,57.00
2023-03-08T17:55:56.482Z,57.00
2023-03-08T17:58:22.962Z,56.90
2023-03-08T18:00:49.447Z,56.80
2023-03-08T18:03:15.958Z,56.80
2023-03-08T18:05:42.443Z,56.90
2023-03-08T18:08:08.958Z,56.90
2023-03-08T18:10:35.421Z,56.80
2023-03-08T18:13:01.917Z,56.90
2023-03-08T18:15:28.419Z,56.90
2023-03-08T18:17:54.944Z,56.90
2023-03-08T18:20:21.432Z,57.10
2023-03-08T18:22:47.897Z,57.00
2023-03-08T18:25:14.389Z,57.00
2023-03-08T18:27:40.902Z,57.10
2023-03-08T18:30:07.380Z,57.20
2023-03-08T18:32:33.923Z,56.90
2023-03-08T18:35:00.448Z,56.90
2023-03-08T18:37:26.921Z,56.70
2023-03-08T18:39:53.405Z,57.00
2023-03-08T18:42:20.447Z,57.20
2023-03-08T18:44:46.950Z,57.10
2023-03-08T18:47:13.417Z,57.20
2023-03-08T18:49:39.892Z,57.00
2023-03-08T18:52:06.384Z,57.70
2023-03-08T18:54:32.877Z,57.20
2023-03-08T18:56:59.418Z,57.30
2023-03-08T18:59:26.915Z,57.40
2023-03-08T19:01:53.446Z,57.30
2023-03-08T19:04:19.940Z,57.20
2023-03-08T19:06:46.405Z,57.30
2023-03-08T19:09:12.855Z,57.30
2023-03-08T19:11:39.398Z,57.10
2023-03-08T19:14:05.891Z,57.00
2023-03-08T19:16:32.383Z,57.00
2023-03-08T19:18:58.904Z,57.10
2023-03-08T19:21:25.386Z,57.20
2023-03-08T19:23:51.866Z,57.20
2023-03-08T19:26:18.330Z,57.00
2023-03-08T19:28:44.826Z,57.10
2023-03-08T19:31:11.314Z,57.30
2023-03-08T19:33:37.813Z,57.10
2023-03-08T19:36:04.332Z,57.20
2023-03-08T19:38:30.859Z,57.30
2023-03-08T19:40:57.344Z,57.30
2023-03-08T19:43:23.828Z,57.20
2023-03-08T19:45:50.425Z,57.20
2023-03-08T19:48:16.984Z,57.30
2023-03-08T19:50:44.944Z,57.00
2023-03-08T19:53:15.120Z,57.00
2023-03-08T19:55:41.604Z,56.90
2023-03-08T19:58:08.101Z,57.20
2023-03-08T20:00:34.583Z,57.10
2023-03-08T20:03:01.059Z,57.50
2023-03-08T20:05:27.588Z,57.30
2023-03-08T20:07:54.075Z,57.20
2023-03-08T20:10:20.562Z,57.60
2023-03-08T20:12:47.045Z,57.70
2023-03-08T20:15:13.523Z,57.50
2023-03-08T20:17:40.038Z,57.40
2023-03-08T20:20:06.512Z,57.50
2023-03-08T20:22:32.998Z,57.50
2023-03-08T20:24:59.489Z,57.50
2023-03-08T20:27:25.985Z,57.40
2023-03-08T20:29:52.454Z,57.50
2023-03-08T20:32:18.975Z,57.20
2023-03-08T20:34:45.481Z,57.20
2023-03-08T20:37:11.948Z,57.00
2023-03-08T20:39:38.418Z,56.90
2023-03-08T20:42:04.893Z,57.10
2023-03-08T20:44:31.383Z,57.20
2023-03-08T20:46:57.901Z,57.00
2023-03-08T20:49:24.382Z,57.20
2023-03-08T20:51:50.882Z,57.20
2023-03-08T20:54:17.336Z,57.30
2023-03-08T20:56:43.800Z,57.20
2023-03-08T20:59:10.282Z,57.00
2023-03-08T21:01:36.873Z,57.10
2023-03-08T21:04:03.399Z,57.00
2023-03-08T21:06:29.903Z,57.00
2023-03-08T21:08:57.008Z,57.30
2023-03-08T21:11:23.507Z,57.20
2023-03-08T21:13:49.992Z,57.20
2023-03-08T21:16:16.518Z,57.20
2023-03-08T21:18:43.040Z,57.20
2023-03-08T21:21:15.037Z,57.50
2023-03-08T21:23:41.516Z,57.40
2023-03-08T21:26:08.002Z,57.40
2023-03-08T21:28:34.489Z,57.20
2023-03-08T21:31:00.990Z,57.10
2023-03-08T21:33:27.480Z,57.20
2023-03-08T21:35:57.095Z,57.20
2023-03-08T21:38:24.793Z,57.20
2023-03-08T21:40:51.396Z,57.30
2023-03-08T21:43:17.882Z,57.10
2023-03-08T21:45:44.374Z,56.90
2023-03-08T21:48:10.829Z,56.80
2023-03-08T21:50:37.326Z,57.20
2023-03-08T21:53:03.799Z,57.10
2023-03-08T21:55:30.291Z,57.00
2023-03-08T21:57:56.756Z,57.00
2023-03-08T22:00:23.213Z,57.30
2023-03-08T22:02:49.744Z,57.30
2023-03-08T22:05:16.263Z,57.10
2023-03-08T22:07:42.751Z,57.00
2023-03-08T22:10:09.241Z,57.00
2023-03-08T22:12:35.723Z,57.10
2023-03-08T22:15:02.202Z,57.00
2023-03-08T22:17:28.694Z,57.10
2023-03-08T22:19:55.172Z,56.90
2023-03-08T22:22:21.676Z,57.10
2023-03-08T22:24:48.181Z,56.90
2023-03-08T22:27:14.648Z,57.10
2023-03-08T22:29:41.131Z,56.90
2023-03-08T22:32:07.614Z,57.00
2023-03-08T22:34:34.093Z,57.00
2023-03-08T22:37:00.598Z,56.90
2023-03-08T22:39:27.093Z,56.80
2023-03-08T22:41:53.580Z,56.80
2023-03-08T22:44:20.048Z,56.80
2023-03-08T22:46:46.683Z,57.00
2023-03-08T22:49:14.022Z,57.00
2023-03-08T22:51:45.096Z,56.80
2023-03-08T22:54:11.583Z,56.80
2023-03-08T22:56:38.067Z,56.70
2023-03-08T22:59:04.547Z,56.90
2023-03-08T23:01:31.086Z,56.80
2023-03-08T23:03:57.684Z,56.80
2023-03-08T23:06:27.119Z,56.70
2023-03-08T23:08:53.611Z,56.80
2023-03-08T23:11:20.123Z,56.70
2023-03-08T23:13:46.616Z,57.00
2023-03-08T23:16:13.117Z,57.00
2023-03-08T23:18:39.622Z,57.00
2023-03-08T23:21:06.113Z,57.10
2023-03-08T23:23:32.611Z,56.90
2023-03-08T23:25:59.092Z,57.00
2023-03-08T23:28:25.579Z,56.90
2023-03-08T23:30:52.054Z,56.80
2023-03-08T23:33:18.542Z,57.60
2023-03-08T23:35:45.101Z,57.00
2023-03-08T23:38:11.593Z,57.00
2023-03-08T23:40:38.096Z,57.00
2023-03-08T23:43:04.594Z,57.00
2023-03-08T23:45:31.065Z,57.00
2023-03-08T23:47:57.569Z,57.10
2023-03-08T23:50:24.084Z,57.10
2023-03-08T23:52:50.570Z,57.30
2023-03-08T23:55:17.034Z,57.20
2023-03-08T23:57:43.542Z,57.00
